Time;durP1;ratioP1;P1;durP2;ratioP2;P2;SDS_P1;SDS_P2;PMS_P1;PMS_P2;Temp;Humidity;BMP_temperature;BMP_pressure;BME280_temperature;BME280_humidity;BME280_pressure;Samples;Min_cycle;Max_cycle;Signal;HPM_P1;HPM_P2
2022/01/04 00:02:05;;;;;;;13.85;7.08;;;;;;;5.77;100.00;99179.70;1695865;83;21110;-67
2022/01/04 00:04:32;;;;;;;11.80;7.55;;;;;;;5.77;100.00;99185.64;1690347;83;21031;-67
2022/01/04 00:06:59;;;;;;;10.98;7.22;;;;;;;5.80;100.00;99181.68;1700565;83;21024;-67
2022/01/04 00:09:27;;;;;;;12.18;7.12;;;;;;;5.79;100.00;99185.57;1700813;83;21083;-67
2022/01/04 00:14:21;;;;;;;11.22;7.33;;;;;;;5.76;100.00;99192.11;1705077;83;21013;-67
2022/01/04 00:16:54;;;;;;;10.08;6.62;;;;;;;5.78;100.00;99187.30;1697197;82;21166;-67
2022/01/04 00:19:19;;;;;;;9.95;6.72;;;;;;;5.74;100.00;99189.62;1690488;85;21587;-67
2022/01/04 00:21:47;;;;;;;12.47;7.87;;;;;;;5.75;100.00;99192.99;1694879;83;21079;-67
2022/01/04 00:24:14;;;;;;;9.30;6.70;;;;;;;5.74;100.00;99190.89;1691663;84;21103;-68
2022/01/04 00:26:43;;;;;;;12.05;7.30;;;;;;;5.74;100.00;99197.28;1691141;84;21008;-67
2022/01/04 00:29:11;;;;;;;9.80;7.15;;;;;;;5.77;100.00;99191.20;1693541;83;21094;-68
2022/01/04 00:31:38;;;;;;;11.20;6.67;;;;;;;5.72;100.00;99192.69;1692776;84;21135;-67
2022/01/04 00:34:06;;;;;;;11.93;7.30;;;;;;;5.68;100.00;99200.53;1694630;83;21141;-67
2022/01/04 00:36:33;;;;;;;12.75;7.87;;;;;;;5.68;100.00;99205.22;1691517;83;21484;-67
2022/01/04 00:39:02;;;;;;;12.70;8.28;;;;;;;5.67;100.00;99204.82;1692357;83;21103;-68
2022/01/04 00:41:29;;;;;;;12.30;7.83;;;;;;;5.70;100.00;99202.14;1691197;83;21035;-67
2022/01/04 00:43:55;;;;;;;9.93;7.33;;;;;;;5.68;100.00;99203.94;1690896;83;21008;-67
2022/01/04 00:46:22;;;;;;;9.08;6.45;;;;;;;5.69;100.00;99197.92;1644696;85;21099;-68
2022/01/04 00:51:42;;;;;;;11.35;7.05;;;;;;;5.62;100.00;99204.22;1690530;84;22281;-68
2022/01/04 00:54:11;;;;;;;11.38;6.97;;;;;;;5.57;100.00;99206.13;1691155;84;21099;-68
2022/01/04 00:56:38;;;;;;;10.98;7.40;;;;;;;5.52;100.00;99208.08;1691274;85;22599;-68
2022/01/04 00:59:05;;;;;;;12.73;7.35;;;;;;;5.52;100.00;99208.89;1692394;84;21035;-67
2022/01/04 01:01:34;;;;;;;9.90;7.00;;;;;;;5.55;100.00;99207.47;1691890;84;21051;-68
2022/01/04 01:04:01;;;;;;;12.28;6.83;;;;;;;5.54;100.00;99210.93;1691735;85;21054;-68
2022/01/04 01:06:29;;;;;;;10.30;6.92;;;;;;;5.52;100.00;99213.18;1690218;84;21075;-68
2022/01/04 01:08:56;;;;;;;9.73;6.60;;;;;;;5.51;100.00;99219.98;1690167;84;21539;-67
2022/01/04 01:11:23;;;;;;;10.93;7.03;;;;;;;5.53;100.00;99225.85;1695541;84;21086;-68
2022/01/04 01:13:53;;;;;;;10.45;7.05;;;;;;;5.55;100.00;99221.50;1694310;84;21056;-67
2022/01/04 01:16:21;;;;;;;8.45;6.35;;;;;;;5.53;100.00;99225.03;1689562;84;21528;-67
2022/01/04 01:18:48;;;;;;;11.15;6.53;;;;;;;5.54;100.00;99238.19;1690950;85;21579;-67
2022/01/04 01:21:18;;;;;;;10.30;6.62;;;;;;;5.54;100.00;99240.73;1690794;85;21080;-67
2022/01/04 01:23:45;;;;;;;10.93;7.03;;;;;;;5.54;100.00;99241.56;1699571;83;20985;-67
2022/01/04 01:26:12;;;;;;;11.85;7.40;;;;;;;5.57;100.00;99246.97;1703931;83;21032;-67
2022/01/04 01:28:41;;;;;;;9.80;6.97;;;;;;;5.53;100.00;99242.89;1700744;83;21043;-68
2022/01/04 01:31:09;;;;;;;11.55;7.35;;;;;;;5.55;100.00;99254.69;1702096;83;21040;-67
2022/01/04 01:33:36;;;;;;;12.63;7.92;;;;;;;5.59;100.00;99256.67;1700076;83;21051;-68
2022/01/04 01:36:06;;;;;;;14.10;9.05;;;;;;;5.61;100.00;99262.53;1696860;83;21088;-68
2022/01/04 01:38:32;;;;;;;18.20;10.30;;;;;;;5.63;100.00;99265.84;1708513;82;21614;-67
2022/01/04 01:41:00;;;;;;;18.52;11.15;;;;;;;5.65;100.00;99270.89;1694087;83;21031;-67
2022/01/04 01:43:29;;;;;;;17.12;10.65;;;;;;;5.66;100.00;99264.45;1700960;83;21048;-67
2022/01/04 01:45:57;;;;;;;22.82;13.18;;;;;;;5.69;100.00;99255.82;1707078;83;21035;-67
2022/01/04 01:48:24;;;;;;;29.95;16.23;;;;;;;5.67;100.00;99258.44;1702696;83;21032;-68
2022/01/04 01:50:52;;;;;;;46.53;21.00;;;;;;;5.65;100.00;99272.99;1705171;82;21626;-68
2022/01/04 01:53:21;;;;;;;48.63;23.85;;;;;;;5.66;100.00;99274.66;1708170;83;21067;-68
2022/01/04 01:55:49;;;;;;;49.15;24.47;;;;;;;5.76;100.00;99269.53;1702891;83;21099;-67
2022/01/04 01:58:16;;;;;;;50.58;25.43;;;;;;;5.83;100.00;99267.08;1703762;83;21071;-68
2022/01/04 02:00:43;;;;;;;50.78;23.02;;;;;;;5.88;100.00;99268.59;1694668;84;21004;-68
2022/01/04 02:03:11;;;;;;;53.80;24.12;;;;;;;5.91;100.00;99274.40;1699415;83;21035;-67
2022/01/04 02:05:38;;;;;;;48.42;25.05;;;;;;;5.91;100.00;99271.02;1700347;83;21119;-68
2022/01/04 02:08:08;;;;;;;48.60;24.18;;;;;;;5.89;100.00;99280.02;1702975;83;21008;-68
2022/01/04 02:10:36;;;;;;;51.83;24.92;;;;;;;5.91;100.00;99278.23;1701106;83;21039;-68
2022/01/04 02:13:03;;;;;;;48.17;22.82;;;;;;;5.90;100.00;99279.14;1675243;83;20968;-68
2022/01/04 02:15:33;;;;;;;44.25;21.57;;;;;;;5.86;100.00;99294.65;1702955;83;21055;-68
2022/01/04 02:18:00;;;;;;;45.03;20.88;;;;;;;5.89;100.00;99298.36;1702923;83;21062;-68
2022/01/04 02:20:28;;;;;;;43.85;20.70;;;;;;;5.91;100.00;99297.84;1705598;83;21501;-68
2022/01/04 02:22:57;;;;;;;33.48;17.87;;;;;;;5.87;100.00;99309.09;1701768;83;21070;-67
2022/01/04 02:25:24;;;;;;;28.83;15.32;;;;;;;5.86;100.00;99304.86;1701802;83;21031;-68
2022/01/04 02:27:52;;;;;;;32.63;16.65;;;;;;;5.83;100.00;99305.38;1699904;83;21098;-67
2022/01/04 02:30:20;;;;;;;38.48;19.35;;;;;;;5.85;100.00;99315.53;1704199;83;21059;-68
2022/01/04 02:32:49;;;;;;;41.95;19.80;;;;;;;5.79;100.00;99305.59;1701948;83;21531;-67
2022/01/04 02:35:21;;;;;;;47.15;21.60;;;;;;;5.81;100.00;99308.45;1701513;83;21119;-67
2022/01/04 02:37:48;;;;;;;45.28;21.97;;;;;;;5.83;100.00;99310.94;1698191;82;21028;-68
2022/01/04 02:40:16;;;;;;;42.43;20.35;;;;;;;5.81;100.00;99317.39;1707380;82;21012;-68
2022/01/04 02:42:43;;;;;;;39.00;19.27;;;;;;;5.77;100.00;99312.48;1695511;83;21047;-68
2022/01/04 02:45:10;;;;;;;43.05;19.57;;;;;;;5.81;100.00;99321.22;1705372;82;20976;-68
2022/01/04 02:47:38;;;;;;;50.80;23.80;;;;;;;5.79;100.00;99320.91;1704517;82;21020;-67
2022/01/04 02:50:10;;;;;;;66.00;28.25;;;;;;;5.79;100.00;99325.56;1700461;82;21158;-68
2022/01/04 02:52:38;;;;;;;72.67;32.13;;;;;;;5.78;100.00;99324.38;1704592;82;21074;-68
2022/01/04 02:55:11;;;;;;;78.70;34.55;;;;;;;5.77;100.00;99323.98;1699613;83;21111;-68
2022/01/04 02:57:39;;;;;;;90.05;37.40;;;;;;;5.76;100.00;99334.65;1700571;83;21074;-68
2022/01/04 03:00:11;;;;;;;89.97;37.28;;;;;;;5.74;100.00;99327.95;1702258;82;21075;-68
2022/01/04 03:02:40;;;;;;;78.07;34.38;;;;;;;5.75;100.00;99342.37;1705208;83;21016;-69
2022/01/04 03:05:09;;;;;;;70.50;32.35;;;;;;;5.76;100.00;99345.31;1704422;83;21595;-68
2022/01/04 03:07:36;;;;;;;73.50;31.87;;;;;;;5.71;100.00;99348.05;1704732;83;21520;-68
2022/01/04 03:10:06;;;;;;;62.40;26.40;;;;;;;5.72;100.00;99359.94;1696707;83;21063;-68
2022/01/04 03:12:34;;;;;;;56.55;24.45;;;;;;;5.69;100.00;99356.22;1699849;83;21520;-68
2022/01/04 03:15:03;;;;;;;51.08;21.48;;;;;;;5.68;100.00;99358.83;1706866;83;21500;-68
2022/01/04 03:17:30;;;;;;;51.55;22.82;;;;;;;5.66;100.00;99360.20;1705803;83;21091;-68
2022/01/04 03:19:57;;;;;;;55.60;24.57;;;;;;;5.60;100.00;99366.84;1704451;83;21035;-69
2022/01/04 03:22:24;;;;;;;59.58;25.80;;;;;;;5.53;100.00;99371.34;1699785;83;21000;-68
2022/01/04 03:24:50;;;;;;;73.17;30.97;;;;;;;5.49;100.00;99371.55;1700560;83;20989;-68
2022/01/04 03:27:18;;;;;;;87.40;36.75;;;;;;;5.45;100.00;99366.19;1707754;83;21067;-68
2022/01/04 03:29:45;;;;;;;88.50;36.73;;;;;;;5.45;100.00;99370.83;1700989;83;21536;-68
2022/01/04 03:32:12;;;;;;;101.25;39.80;;;;;;;5.42;100.00;99366.69;1704862;82;20992;-68
2022/01/04 03:34:40;;;;;;;110.72;45.78;;;;;;;5.42;100.00;99373.53;1703741;83;21059;-68
2022/01/04 03:37:08;;;;;;;113.42;46.33;;;;;;;5.42;100.00;99374.80;1711755;82;21114;-68
2022/01/04 03:39:35;;;;;;;116.33;48.25;;;;;;;5.40;100.00;99379.14;1700283;83;21029;-69
2022/01/04 03:42:05;;;;;;;117.72;49.08;;;;;;;5.42;100.00;99377.36;1699618;82;21068;-68
2022/01/04 03:44:33;;;;;;;91.32;39.63;;;;;;;5.39;100.00;99383.84;1705480;83;20996;-68
2022/01/04 03:47:00;;;;;;;95.12;41.25;;;;;;;5.36;100.00;99383.53;1705577;83;21001;-68
2022/01/04 03:49:27;;;;;;;92.55;38.55;;;;;;;5.35;100.00;99387.00;1668993;83;21043;-68
2022/01/04 03:51:54;;;;;;;77.70;32.70;;;;;;;5.31;100.00;99398.64;1707597;83;21015;-68
2022/01/04 03:54:22;;;;;;;77.27;33.42;;;;;;;5.25;100.00;99397.19;1713561;82;21026;-68
2022/01/04 03:56:51;;;;;;;68.83;30.35;;;;;;;5.23;100.00;99400.22;1708666;82;21052;-69
2022/01/04 03:59:18;;;;;;;55.38;23.85;;;;;;;5.24;100.00;99409.55;1704541;82;21488;-68
2022/01/04 04:01:45;;;;;;;43.98;21.33;;;;;;;5.24;100.00;99413.38;1698169;82;21122;-68
2022/01/04 04:04:12;;;;;;;39.27;17.67;;;;;;;5.30;100.00;99426.34;1707533;82;21071;-69
2022/01/04 04:06:41;;;;;;;39.10;17.67;;;;;;;5.33;100.00;99424.50;1701901;83;21055;-69
2022/01/04 04:09:07;;;;;;;30.48;14.83;;;;;;;5.37;100.00;99427.31;1701259;83;20979;-68
2022/01/04 04:11:34;;;;;;;34.15;15.78;;;;;;;5.40;100.00;99434.84;1711982;82;21527;-68
2022/01/04 04:14:01;;;;;;;28.27;13.95;;;;;;;5.40;100.00;99439.94;1704057;82;20972;-69
2022/01/04 04:16:28;;;;;;;33.75;15.15;;;;;;;5.37;100.00;99446.45;1705867;83;21051;-68
2022/01/04 04:18:55;;;;;;;33.15;15.25;;;;;;;5.31;100.00;99450.95;1708937;83;21067;-68
2022/01/04 04:21:24;;;;;;;34.43;14.53;;;;;;;5.30;100.00;99449.30;1698994;83;21024;-69
2022/01/04 04:23:51;;;;;;;33.13;15.83;;;;;;;5.29;100.00;99454.86;1706977;83;21028;-69
2022/01/04 04:26:17;;;;;;;38.28;16.40;;;;;;;5.28;100.00;99462.56;1718652;82;21510;-68
2022/01/04 04:28:44;;;;;;;36.45;15.95;;;;;;;5.24;100.00;99454.20;1698321;83;21091;-69
2022/01/04 04:31:14;;;;;;;26.80;13.18;;;;;;;5.21;100.00;99451.75;1706681;83;21023;-68
2022/01/04 04:33:40;;;;;;;19.17;10.93;;;;;;;5.09;100.00;99464.56;1705460;83;21016;-70
2022/01/04 04:36:12;;;;;;;16.45;9.60;;;;;;;4.99;100.00;99464.07;1706950;83;21035;-70
2022/01/04 04:38:36;;;;;;;18.52;10.85;;;;;;;4.91;100.00;99466.53;1704977;83;21059;-69
2022/01/04 04:41:03;;;;;;;18.20;10.18;;;;;;;4.87;100.00;99479.02;1708991;83;21051;-68
2022/01/04 04:43:30;;;;;;;17.73;10.38;;;;;;;4.85;100.00;99470.14;1707272;82;21021;-68
2022/01/04 04:45:57;;;;;;;16.40;9.90;;;;;;;4.81;100.00;99466.86;1707406;83;21039;-69
2022/01/04 04:48:25;;;;;;;17.85;10.90;;;;;;;4.78;100.00;99470.78;1702570;83;21012;-69
2022/01/04 04:50:52;;;;;;;22.35;12.35;;;;;;;4.78;100.00;99474.61;1704144;83;21099;-68
2022/01/04 04:53:19;;;;;;;36.20;16.80;;;;;;;4.76;100.00;99480.21;1700607;83;21024;-69
2022/01/04 04:55:46;;;;;;;51.30;21.62;;;;;;;4.78;100.00;99478.44;1698130;83;21004;-68
2022/01/04 04:58:14;;;;;;;44.75;21.17;;;;;;;4.83;100.00;99487.66;1701671;83;21521;-70
2022/01/04 05:00:42;;;;;;;47.80;20.52;;;;;;;4.96;100.00;99488.86;1703026;83;21016;-69
2022/01/04 05:03:08;;;;;;;36.93;17.92;;;;;;;5.07;100.00;99490.57;1706201;83;21003;-68
2022/01/04 05:05:35;;;;;;;34.00;15.78;;;;;;;5.13;100.00;99495.86;1701322;82;20973;-70
2022/01/04 05:08:02;;;;;;;26.90;13.38;;;;;;;5.18;100.00;99499.08;1699609;83;21036;-68
2022/01/04 05:10:29;;;;;;;24.52;11.73;;;;;;;5.19;100.00;99507.11;1699452;82;21508;-69
2022/01/04 05:12:57;;;;;;;19.52;9.70;;;;;;;5.21;100.00;99512.56;1700060;83;21084;-69
2022/01/04 05:15:24;;;;;;;16.73;8.85;;;;;;;5.27;100.00;99506.40;1701610;84;21004;-68
2022/01/04 05:17:50;;;;;;;16.15;8.35;;;;;;;5.25;100.00;99519.66;1708599;82;21553;-69
2022/01/04 05:20:18;;;;;;;14.58;8.20;;;;;;;5.28;100.00;99529.73;1706870;83;21607;-69
2022/01/04 05:22:44;;;;;;;13.93;7.12;;;;;;;5.30;100.00;99532.23;1701769;82;21076;-69
2022/01/04 05:25:11;;;;;;;11.15;6.55;;;;;;;5.24;100.00;99535.84;1704911;83;21000;-68
2022/01/04 05:27:40;;;;;;;10.50;6.00;;;;;;;5.28;100.00;99540.39;1701997;83;21333;-69
2022/01/04 05:30:08;;;;;;;9.20;5.45;;;;;;;5.25;100.00;99541.34;1703478;82;20968;-69
2022/01/04 05:32:35;;;;;;;9.10;4.78;;;;;;;5.21;100.00;99543.17;1706899;83;21051;-70
2022/01/04 05:35:02;;;;;;;7.45;5.17;;;;;;;5.16;100.00;99550.61;1679139;84;21016;-69
2022/01/04 05:37:29;;;;;;;8.35;5.20;;;;;;;5.16;100.00;99556.98;1701511;83;21008;-69
2022/01/04 05:39:56;;;;;;;7.70;4.80;;;;;;;5.19;100.00;99564.52;1701612;83;21047;-68
2022/01/04 05:42:23;;;;;;;7.80;4.75;;;;;;;5.10;100.00;99564.86;1705082;83;21470;-69
2022/01/04 05:44:49;;;;;;;5.78;3.95;;;;;;;5.14;100.00;99574.89;1702664;83;21059;-68
2022/01/04 05:47:16;;;;;;;5.87;3.35;;;;;;;5.11;100.00;99583.95;1702738;83;21558;-69
2022/01/04 05:49:43;;;;;;;4.58;2.95;;;;;;;5.11;100.00;99586.50;1703871;83;21043;-68
2022/01/04 05:52:10;;;;;;;4.33;3.10;;;;;;;5.18;100.00;99594.75;1707450;83;21508;-69
2022/01/04 05:54:37;;;;;;;5.20;3.30;;;;;;;5.21;100.00;99592.08;1699836;83;21529;-68
2022/01/04 05:57:05;;;;;;;5.25;3.65;;;;;;;5.23;100.00;99592.84;1696030;83;22341;-69
2022/01/04 05:59:33;;;;;;;6.28;4.40;;;;;;;5.22;100.00;99593.75;1706479;83;21063;-68
2022/01/04 06:02:01;;;;;;;7.58;4.70;;;;;;;5.25;100.00;99605.14;1701450;83;21052;-68
2022/01/04 06:04:28;;;;;;;7.12;5.00;;;;;;;5.25;100.00;99611.52;1699698;83;21027;-68
2022/01/04 06:06:56;;;;;;;12.37;7.03;;;;;;;5.23;100.00;99624.74;1706449;83;21496;-69
2022/01/04 06:09:27;;;;;;;13.58;7.55;;;;;;;5.23;100.00;99627.30;1707514;83;21059;-69
2022/01/04 06:17:10;;;;;;;8.50;5.42;;;;;;;5.26;100.00;99641.23;1704865;83;21032;-69
2022/01/04 06:19:39;;;;;;;6.12;4.25;;;;;;;5.19;100.00;99647.01;1702304;83;21103;-69
2022/01/04 06:22:07;;;;;;;5.22;3.67;;;;;;;5.19;100.00;99651.25;1700966;83;21539;-69
2022/01/04 06:24:36;;;;;;;5.50;4.00;;;;;;;5.19;100.00;99655.94;1706421;83;21047;-69
2022/01/04 06:27:09;;;;;;;8.23;4.78;;;;;;;5.21;100.00;99655.86;1699286;83;21080;-68
2022/01/04 06:29:39;;;;;;;8.15;4.72;;;;;;;5.22;100.00;99658.81;1682865;84;21020;-68
2022/01/04 06:32:07;;;;;;;7.35;4.78;;;;;;;5.25;100.00;99665.10;1665323;84;21178;-68
2022/01/04 06:34:36;;;;;;;6.58;3.80;;;;;;;5.27;100.00;99669.70;1649501;86;21023;-69
2022/01/04 06:37:03;;;;;;;7.65;4.42;;;;;;;5.30;100.00;99676.41;1675114;84;21123;-69
2022/01/04 06:39:30;;;;;;;9.25;5.20;;;;;;;5.29;100.00;99671.76;1649407;86;21051;-68
2022/01/04 06:41:59;;;;;;;13.95;6.95;;;;;;;5.27;100.00;99677.36;1629419;86;21040;-69
2022/01/04 06:44:27;;;;;;;23.57;11.53;;;;;;;5.34;100.00;99681.80;1706337;83;21031;-69
2022/01/04 06:46:56;;;;;;;23.18;12.10;;;;;;;5.33;100.00;99679.69;1700158;84;21524;-70
2022/01/04 06:49:24;;;;;;;22.35;12.78;;;;;;;5.36;100.00;99684.67;1701419;83;20993;-68
2022/01/04 06:51:51;;;;;;;19.82;10.40;;;;;;;5.37;100.00;99690.59;1708311;82;21128;-68
2022/01/04 06:54:22;;;;;;;13.68;8.00;;;;;;;5.33;100.00;99683.94;1695255;83;21020;-68
2022/01/04 06:56:51;;;;;;;13.32;7.62;;;;;;;5.33;100.00;99685.22;1699272;83;21004;-68
2022/01/04 06:59:19;;;;;;;12.37;6.53;;;;;;;5.35;100.00;99685.58;1701164;82;21496;-70
2022/01/04 07:01:46;;;;;;;10.18;5.42;;;;;;;5.39;100.00;99691.38;1700473;83;21103;-69
2022/01/04 07:04:14;;;;;;;9.85;5.75;;;;;;;5.44;100.00;99692.51;1693466;83;21005;-68
2022/01/04 07:06:42;;;;;;;9.88;5.45;;;;;;;5.45;100.00;99703.09;1710167;82;21015;-69
2022/01/04 07:09:10;;;;;;;7.80;5.08;;;;;;;5.46;100.00;99704.32;1712633;81;21496;-69
2022/01/04 07:11:37;;;;;;;6.15;4.17;;;;;;;5.50;100.00;99708.43;1703965;83;21048;-69
2022/01/04 07:14:05;;;;;;;6.87;4.17;;;;;;;5.51;100.00;99709.25;1699964;83;21008;-68
2022/01/04 07:16:33;;;;;;;8.00;4.87;;;;;;;5.51;100.00;99707.53;1702002;83;21074;-69
2022/01/04 07:19:00;;;;;;;9.05;4.87;;;;;;;5.50;100.00;99716.09;1703222;83;21064;-69
2022/01/04 07:21:27;;;;;;;6.65;4.50;;;;;;;5.50;100.00;99712.26;1694447;82;21039;-69
2022/01/04 07:23:55;;;;;;;7.95;3.98;;;;;;;5.54;100.00;99710.44;1707334;83;21015;-68
2022/01/04 07:26:23;;;;;;;6.60;4.17;;;;;;;5.57;100.00;99719.24;1701687;83;21079;-69
2022/01/04 07:28:52;;;;;;;4.30;3.50;;;;;;;5.62;100.00;99717.38;1702699;83;21004;-69
2022/01/04 07:31:20;;;;;;;4.03;3.30;;;;;;;5.50;100.00;99719.91;1695330;83;21095;-69
2022/01/04 07:33:47;;;;;;;8.35;4.17;;;;;;;5.56;100.00;99727.35;1679907;84;21079;-68
2022/01/04 07:36:15;;;;;;;5.35;3.30;;;;;;;5.53;100.00;99721.06;1687175;83;21020;-69
2022/01/04 07:38:43;;;;;;;7.45;3.90;;;;;;;5.51;100.00;99724.56;1650647;86;21031;-69
2022/01/04 07:41:11;;;;;;;7.50;4.58;;;;;;;5.52;100.00;99726.25;1674056;83;21452;-69
2022/01/04 07:43:38;;;;;;;12.68;6.62;;;;;;;5.55;100.00;99726.95;1671896;85;21024;-68
2022/01/04 07:46:05;;;;;;;22.15;9.78;;;;;;;5.54;100.00;99734.23;1634435;88;21073;-69
2022/01/04 07:48:33;;;;;;;33.38;14.58;;;;;;;5.57;100.00;99735.84;1636409;86;21030;-69
2022/01/04 07:51:00;;;;;;;48.25;21.25;;;;;;;5.61;100.00;99734.38;1633482;86;21176;-69
2022/01/04 07:53:27;;;;;;;60.05;25.88;;;;;;;5.70;100.00;99738.34;1636169;85;21555;-69
2022/01/04 07:55:54;;;;;;;63.28;27.90;;;;;;;5.72;100.00;99743.41;1657691;85;21532;-68
2022/01/04 07:58:22;;;;;;;66.60;26.73;;;;;;;5.72;100.00;99746.78;1662906;86;21090;-69
2022/01/04 08:00:50;;;;;;;63.80;26.45;;;;;;;5.73;100.00;99743.33;1637386;86;21072;-69
2022/01/04 08:03:17;;;;;;;64.80;28.27;;;;;;;5.75;100.00;99748.39;1661639;85;21086;-69
2022/01/04 08:05:44;;;;;;;58.95;27.32;;;;;;;5.82;100.00;99754.50;1662034;85;21151;-70
2022/01/04 08:08:12;;;;;;;63.30;26.87;;;;;;;5.88;100.00;99756.00;1661252;84;21020;-69
2022/01/04 08:10:40;;;;;;;57.67;25.30;;;;;;;5.88;100.00;99757.70;1662653;85;21538;-69
2022/01/04 08:13:07;;;;;;;51.50;23.18;;;;;;;5.83;100.00;99757.42;1638572;86;21055;-69
2022/01/04 08:15:34;;;;;;;48.42;22.02;;;;;;;5.90;100.00;99759.75;1664935;86;21083;-68
2022/01/04 08:18:01;;;;;;;53.70;23.32;;;;;;;5.94;100.00;99762.16;1657737;85;21023;-69
2022/01/04 08:20:28;;;;;;;57.38;24.10;;;;;;;5.90;100.00;99768.69;1648278;86;21120;-68
2022/01/04 08:22:55;;;;;;;49.98;23.12;;;;;;;5.78;100.00;99768.27;1653161;84;21028;-69
2022/01/04 08:25:22;;;;;;;52.23;23.77;;;;;;;5.77;100.00;99779.36;1661145;85;21048;-70
2022/01/04 08:27:49;;;;;;;55.75;23.70;;;;;;;5.75;100.00;99777.75;1663299;84;21083;-69
2022/01/04 08:30:16;;;;;;;50.38;23.20;;;;;;;5.80;100.00;99775.89;1661435;85;21092;-69
2022/01/04 08:32:45;;;;;;;53.10;23.65;;;;;;;5.83;100.00;99779.59;1630483;86;21103;-71
2022/01/04 08:35:12;;;;;;;50.67;22.77;;;;;;;5.83;100.00;99775.30;1661721;85;21039;-69
2022/01/04 08:37:40;;;;;;;43.80;21.30;;;;;;;5.81;100.00;99772.42;1664386;85;21035;-69
2022/01/04 08:40:09;;;;;;;47.78;22.48;;;;;;;5.77;100.00;99773.42;1663093;85;21125;-70
2022/01/04 08:42:37;;;;;;;46.48;21.17;;;;;;;5.77;100.00;99778.08;1665189;85;21035;-69
2022/01/04 08:45:07;;;;;;;49.93;20.92;;;;;;;5.78;100.00;99781.04;1662286;84;21043;-69
2022/01/04 08:47:34;;;;;;;34.38;17.02;;;;;;;5.79;100.00;99789.07;1634005;86;21040;-69
2022/01/04 08:50:07;;;;;;;40.98;18.23;;;;;;;5.80;100.00;99787.37;1633646;86;21077;-70
2022/01/04 08:52:35;;;;;;;37.20;18.25;;;;;;;5.83;100.00;99788.53;1635727;86;21117;-70
2022/01/04 08:55:04;;;;;;;40.00;18.30;;;;;;;5.76;100.00;99789.66;1639514;86;21077;-69
2022/01/04 08:57:31;;;;;;;39.67;18.23;;;;;;;5.72;100.00;99783.81;1669791;85;21095;-69
2022/01/04 08:59:59;;;;;;;40.88;17.32;;;;;;;5.77;100.00;99780.63;1663507;85;21079;-70
2022/01/04 09:02:27;;;;;;;33.10;16.57;;;;;;;5.86;100.00;99781.19;1665377;84;21036;-69
2022/01/04 09:04:55;;;;;;;27.75;14.15;;;;;;;5.85;100.00;99784.20;1664336;84;21527;-68
2022/01/04 09:07:21;;;;;;;29.42;14.60;;;;;;;5.80;100.00;99788.66;1663141;85;21110;-70
2022/01/04 09:09:49;;;;;;;28.77;14.00;;;;;;;5.83;100.00;99789.80;1662996;85;21043;-69
2022/01/04 09:12:17;;;;;;;27.32;13.45;;;;;;;5.83;100.00;99793.64;1664972;85;21106;-70
2022/01/04 09:15:06;;;;;;;27.05;13.58;;;;;;;5.81;100.00;99797.52;1666261;84;21111;-69
2022/01/04 09:20:15;;;;;;;30.90;15.43;;;;;;;5.99;100.00;99805.45;1664491;85;21110;-69
2022/01/04 09:22:44;;;;;;;29.92;15.03;;;;;;;5.95;100.00;99813.66;1663153;86;21060;-69
2022/01/04 09:25:11;;;;;;;26.35;13.68;;;;;;;5.90;100.00;99824.47;1673460;84;21032;-69
2022/01/04 09:27:38;;;;;;;31.55;14.13;;;;;;;5.88;100.00;99830.50;1680693;85;21063;-69
2022/01/04 09:30:07;;;;;;;25.70;12.28;;;;;;;5.87;100.00;99823.73;1684682;84;21056;-69
2022/01/04 09:32:36;;;;;;;27.17;13.60;;;;;;;5.87;100.00;99830.12;1680693;84;21080;-70
2022/01/04 09:35:06;;;;;;;31.85;14.53;;;;;;;5.88;100.00;99821.14;1681373;85;21044;-69
2022/01/04 09:37:34;;;;;;;46.02;21.68;;;;;;;5.88;100.00;99820.28;1681673;84;21583;-70
2022/01/04 09:40:01;;;;;;;46.90;20.80;;;;;;;5.90;100.00;99818.50;1690755;85;21104;-69
2022/01/04 09:42:30;;;;;;;46.33;20.57;;;;;;;5.91;100.00;99818.91;1690171;84;21075;-69
2022/01/04 09:44:58;;;;;;;37.70;17.55;;;;;;;5.96;100.00;99817.03;1690564;83;21106;-70
2022/01/04 09:47:25;;;;;;;34.65;16.37;;;;;;;6.01;100.00;99824.11;1690452;85;21048;-69
2022/01/04 09:49:52;;;;;;;33.48;16.50;;;;;;;6.05;100.00;99822.28;1687082;84;21202;-69
2022/01/04 09:52:21;;;;;;;35.78;15.88;;;;;;;6.06;100.00;99822.20;1671924;85;21576;-69
2022/01/04 09:54:54;;;;;;;31.23;13.62;;;;;;;6.04;100.00;99827.81;1676787;85;21059;-69
2022/01/04 09:57:21;;;;;;;;;;;;;;;6.00;100.00;99830.95;1685378;85;21087;-70
2022/01/04 09:59:49;;;;;;;33.73;15.38;;;;;;;5.92;100.00;99824.39;1690771;84;20116;-68
2022/01/04 10:02:20;;;;;;;36.60;16.67;;;;;;;5.86;100.00;99825.47;1683732;85;21063;-69
2022/01/04 10:04:48;;;;;;;30.72;16.10;;;;;;;5.80;100.00;99829.06;1682994;84;21020;-69
2022/01/04 10:07:16;;;;;;;32.65;15.78;;;;;;;5.80;100.00;99823.95;1686372;85;21048;-69
2022/01/04 10:09:48;;;;;;;30.02;15.32;;;;;;;5.91;100.00;99816.36;1690022;84;21060;-69
2022/01/04 10:12:18;;;;;;;33.38;15.38;;;;;;;5.87;100.00;99814.80;1690825;85;21036;-70
2022/01/04 10:14:48;;;;;;;32.75;14.78;;;;;;;5.83;100.00;99809.78;1690397;84;21097;-69
2022/01/04 10:17:29;;;;;;;41.98;17.95;;;;;;;5.74;100.00;99806.75;1690425;85;21083;-69
2022/01/04 10:20:00;;;;;;;39.15;18.82;;;;;;;5.81;100.00;99810.73;1696170;83;21511;-69
2022/01/04 10:22:36;;;;;;;44.88;21.70;;;;;;;5.99;100.00;99799.88;1698423;84;21595;-69
2022/01/04 10:25:08;;;;;;;43.55;19.17;;;;;;;6.08;100.00;99805.55;1697818;84;21579;-69
2022/01/04 10:27:43;;;;;;;41.63;19.27;;;;;;;6.17;100.00;99814.16;1690464;85;21028;-69
2022/01/04 10:30:30;;;;;;;46.98;20.70;;;;;;;6.22;100.00;99814.80;1689995;84;21028;-70
2022/01/04 10:33:07;;;;;;;54.98;23.55;;;;;;;6.24;100.00;99816.03;1690650;83;21147;-69
2022/01/04 10:35:48;;;;;;;57.98;25.10;;;;;;;6.14;100.00;99815.12;1688914;84;21060;-70
2022/01/04 10:38:22;;;;;;;48.25;23.77;;;;;;;6.10;100.00;99822.93;1678891;84;21119;-70
2022/01/04 10:41:00;;;;;;;49.30;23.50;;;;;;;6.09;100.00;99816.99;1685451;83;21528;-69
2022/01/04 10:43:31;;;;;;;47.85;25.00;;;;;;;6.03;100.00;99817.22;1680026;84;21536;-70
2022/01/04 10:46:04;;;;;;;53.02;26.85;;;;;;;5.97;100.00;99818.27;1680757;84;21103;-70
2022/01/04 10:48:36;;;;;;;47.10;22.05;;;;;;;5.98;100.00;99819.09;1680856;85;21055;-70
2022/01/04 10:51:21;;;;;;;42.43;21.33;;;;;;;6.00;100.00;99822.00;1678646;85;21064;-71
2022/01/04 10:53:58;;;;;;;43.63;22.15;;;;;;;5.96;100.00;99820.87;1680637;85;21064;-71
2022/01/04 10:56:32;;;;;;;40.70;19.70;;;;;;;5.97;100.00;99825.11;1678411;85;21060;-70
2022/01/04 10:59:05;;;;;;;47.78;22.62;;;;;;;5.91;100.00;99832.95;1683883;85;21560;-71
2022/01/04 11:01:45;;;;;;;46.48;21.70;;;;;;;5.90;100.00;99834.69;1690652;83;21044;-70
2022/01/04 11:04:18;;;;;;;42.38;21.02;;;;;;;5.75;100.00;99841.15;1686362;85;21543;-70
2022/01/04 11:06:49;;;;;;;47.45;22.05;;;;;;;5.74;100.00;99838.22;1688069;83;21527;-70
2022/01/04 11:09:19;;;;;;;48.55;22.70;;;;;;;5.71;100.00;99832.38;1697188;84;21075;-69
2022/01/04 11:11:47;;;;;;;54.15;26.23;;;;;;;5.75;100.00;99838.59;1693927;83;21100;-69
2022/01/04 11:14:14;;;;;;;60.15;28.73;;;;;;;5.79;100.00;99847.81;1691041;83;21056;-69
2022/01/04 11:16:43;;;;;;;56.23;26.82;;;;;;;5.77;100.00;99849.59;1691242;85;21036;-70
2022/01/04 11:19:10;;;;;;;52.62;25.95;;;;;;;5.70;100.00;99848.16;1694011;84;21059;-69
2022/01/04 11:21:41;;;;;;;55.33;25.35;;;;;;;5.69;100.00;99850.75;1690704;85;21119;-70
2022/01/04 11:24:20;;;;;;;59.77;27.65;;;;;;;5.68;100.00;99856.31;1690931;85;21047;-71
2022/01/04 11:26:46;;;;;;;50.35;23.80;;;;;;;5.72;100.00;99857.88;1689770;85;21052;-69
2022/01/04 11:29:17;;;;;;;57.67;24.98;;;;;;;5.79;100.00;99865.69;1692286;84;21040;-69
2022/01/04 11:32:02;;;;;;;48.17;23.73;;;;;;;5.75;100.00;99866.69;1662263;86;21651;-69
2022/01/04 11:35:16;;;;;;;46.55;24.05;;;;;;;5.76;100.00;99873.48;1689858;83;21079;-70
2022/01/04 11:37:58;;;;;;;45.60;23.05;;;;;;;5.71;100.00;99862.57;1691258;84;21520;-70
2022/01/04 11:40:36;;;;;;;42.13;21.73;;;;;;;5.72;100.00;99870.64;1691149;84;21043;-69
2022/01/04 11:43:08;;;;;;;42.43;21.60;;;;;;;5.77;100.00;99869.20;1692191;84;21611;-71